Tesla, West Virginia
Current Conditions -  °F | °C
As of 3:35 AM on Friday 19 Dec 2014 (Local Time) from KW22 Reporting Station
Overcast Overcast  
Wind Chill: 25°   Ceiling: 1700
Heat Index: 25°   Visibility: 10mi
Dew Point: 21°   Wind: 3mph
Humidity: 86%   Direction: 260°W
Pressure: 30.15"   Gusts: NA
Location:  38.5731°N, 80.7117°W
Report Text: KW22 190835Z AUTO 26003KT 10SM OVC017 M04/M06 A3015 RMK AO2
Loading
Personal Weather Stations






























Interactive Weather Map New forecast layout! Learn more

10-Day Weather Forecast

Advertisements
Track Severe Weather on mobile